createdAt,value
2018-08-04T00:00:15.639Z,57.73
2018-08-04T00:02:44.030Z,57.86
2018-08-04T00:05:12.413Z,58.34
2018-08-04T00:07:40.805Z,57.91
2018-08-04T00:10:19.153Z,59.02
2018-08-04T00:12:49.307Z,59.23
2018-08-04T00:15:17.745Z,59.47
2018-08-04T00:17:46.573Z,58.67
2018-08-04T00:20:15.140Z,59.81
2018-08-04T00:22:43.533Z,58.91
2018-08-04T00:25:11.922Z,59.77
2018-08-04T00:27:40.327Z,59.77
2018-08-04T00:30:11.205Z,59.05
2018-08-04T00:32:39.639Z,59.49
2018-08-04T00:35:08.473Z,59.43
2018-08-04T00:37:36.982Z,60.11
2018-08-04T00:40:06.399Z,59.07
2018-08-04T00:42:34.797Z,58.96
2018-08-04T00:45:03.435Z,59.02
2018-08-04T00:47:31.838Z,59.06
2018-08-04T00:50:00.409Z,59.89
2018-08-04T00:52:28.775Z,59.96
2018-08-04T00:54:57.379Z,59.63
2018-08-04T00:57:25.755Z,59.40
2018-08-04T00:59:54.146Z,60.25
2018-08-04T01:02:22.525Z,59.92
2018-08-04T01:04:50.927Z,60.08
2018-08-04T01:07:19.297Z,59.41
2018-08-04T01:09:47.751Z,60.09
2018-08-04T01:12:16.230Z,60.14
2018-08-04T01:14:44.918Z,60.93
2018-08-04T01:17:13.282Z,60.96
2018-08-04T01:19:41.886Z,60.60
2018-08-04T01:22:10.245Z,61.55
2018-08-04T01:24:38.654Z,60.90
2018-08-04T01:27:07.030Z,61.99
2018-08-04T01:29:35.421Z,62.04
2018-08-04T01:32:03.790Z,61.47
2018-08-04T01:34:32.187Z,62.36
2018-08-04T01:37:00.551Z,61.63
2018-08-04T01:39:28.942Z,61.84
2018-08-04T01:41:57.317Z,62.96
2018-08-04T01:44:25.719Z,62.71
2018-08-04T01:46:54.098Z,63.64
2018-08-04T01:49:22.498Z,63.07
2018-08-04T01:51:50.872Z,64.78
2018-08-04T01:54:19.266Z,64.54
2018-08-04T01:56:47.643Z,64.86
2018-08-04T01:59:16.109Z,65.19
2018-08-04T02:01:44.515Z,64.67
2018-08-04T02:04:12.915Z,65.51
2018-08-04T02:06:41.286Z,64.83
2018-08-04T02:09:10.902Z,65.08
2018-08-04T02:11:39.358Z,65.80
2018-08-04T02:14:07.766Z,65.11
2018-08-04T02:16:36.134Z,65.75
2018-08-04T02:19:04.525Z,66.03
2018-08-04T02:21:32.927Z,65.74
2018-08-04T02:24:01.328Z,66.61
2018-08-04T02:26:29.702Z,66.40
2018-08-04T02:28:58.107Z,65.42
2018-08-04T02:31:26.475Z,65.74
2018-08-04T02:33:54.875Z,66.25
2018-08-04T02:36:23.254Z,65.47
2018-08-04T02:38:51.664Z,65.49
2018-08-04T02:41:20.047Z,66.35
2018-08-04T02:43:48.443Z,66.54
2018-08-04T02:46:16.814Z,66.63
2018-08-04T02:48:45.198Z,66.09
2018-08-04T02:51:13.604Z,66.30
2018-08-04T02:53:42.414Z,67.22
2018-08-04T02:56:10.823Z,66.48
2018-08-04T02:58:39.198Z,67.48
2018-08-04T03:01:07.610Z,67.05
2018-08-04T03:03:36.027Z,67.76
2018-08-04T03:06:04.426Z,67.99
2018-08-04T03:08:32.842Z,67.46
2018-08-04T03:11:01.295Z,66.97
2018-08-04T03:13:29.661Z,67.67
2018-08-04T03:15:58.069Z,67.95
2018-08-04T03:18:26.438Z,67.29
2018-08-04T03:20:54.877Z,67.83
2018-08-04T03:23:23.253Z,67.60
2018-08-04T03:25:51.642Z,67.37
2018-08-04T03:28:20.151Z,67.08
2018-08-04T03:30:48.550Z,67.71
2018-08-04T03:33:16.926Z,67.71
2018-08-04T03:35:45.395Z,67.03
2018-08-04T03:38:13.769Z,67.45
2018-08-04T03:40:42.157Z,66.95
2018-08-04T03:43:10.538Z,67.89
2018-08-04T03:45:38.933Z,67.10
2018-08-04T03:48:07.301Z,67.63
2018-08-04T03:50:35.704Z,67.48
2018-08-04T03:53:04.079Z,67.59
2018-08-04T03:55:32.475Z,67.09
2018-08-04T03:58:00.855Z,67.24
2018-08-04T04:00:29.250Z,67.04
2018-08-04T04:02:57.614Z,66.04
2018-08-04T04:05:26.008Z,66.80
2018-08-04T04:07:54.379Z,66.55
2018-08-04T04:10:22.794Z,65.48
2018-08-04T04:12:51.166Z,65.82
2018-08-04T04:15:19.566Z,66.07
2018-08-04T04:17:48.638Z,65.76
2018-08-04T04:20:18.677Z,65.59
2018-08-04T04:22:47.140Z,64.84
2018-08-04T04:25:15.539Z,64.62
2018-08-04T04:27:44.400Z,64.11
2018-08-04T04:30:13.850Z,64.76
2018-08-04T04:32:42.229Z,63.85
2018-08-04T04:35:10.634Z,64.66
2018-08-04T04:37:39.026Z,63.57
2018-08-04T04:40:07.464Z,64.17
2018-08-04T04:42:35.862Z,63.47
2018-08-04T04:45:04.259Z,63.54
2018-08-04T04:47:32.650Z,63.76
2018-08-04T04:50:01.023Z,63.41
2018-08-04T04:52:29.416Z,63.49
2018-08-04T04:54:57.785Z,64.09
2018-08-04T04:57:26.964Z,63.53
2018-08-04T04:59:55.381Z,63.60
2018-08-04T05:02:23.781Z,63.90
2018-08-04T05:04:52.155Z,64.03
2018-08-04T05:07:20.549Z,63.82
2018-08-04T05:09:49.095Z,63.69
2018-08-04T05:12:17.474Z,62.84
2018-08-04T05:14:45.833Z,62.06
2018-08-04T05:17:14.230Z,60.83
2018-08-04T05:19:42.595Z,60.54
2018-08-04T05:22:11.001Z,60.33
2018-08-04T05:24:39.369Z,60.37
2018-08-04T05:27:08.193Z,59.69
2018-08-04T05:29:38.168Z,59.94
2018-08-04T05:32:06.581Z,59.68
2018-08-04T05:34:34.969Z,58.19
2018-08-04T05:37:03.350Z,58.73
2018-08-04T05:39:31.740Z,58.80
2018-08-04T05:42:00.143Z,58.71
2018-08-04T05:44:28.567Z,58.29
2018-08-04T05:46:56.967Z,58.66
2018-08-04T05:49:25.374Z,58.49
2018-08-04T05:51:53.815Z,58.30
2018-08-04T05:54:22.195Z,57.17
2018-08-04T05:56:50.595Z,57.22
2018-08-04T05:59:19.133Z,57.50
2018-08-04T06:01:47.755Z,55.90
2018-08-04T06:04:16.126Z,56.58
2018-08-04T06:06:44.530Z,56.92
2018-08-04T06:09:12.898Z,56.33
2018-08-04T06:11:41.773Z,56.76
2018-08-04T06:14:10.154Z,55.48
2018-08-04T06:16:38.551Z,55.61
2018-08-04T06:19:06.925Z,55.77
2018-08-04T06:21:35.321Z,55.43
2018-08-04T06:24:03.703Z,56.42
2018-08-04T06:26:32.122Z,55.93
2018-08-04T06:29:01.239Z,54.98
2018-08-04T06:31:29.652Z,56.22
2018-08-04T06:33:58.030Z,55.00
2018-08-04T06:36:26.439Z,55.71
2018-08-04T06:38:54.825Z,54.50
2018-08-04T06:41:23.225Z,54.73
2018-08-04T06:43:51.608Z,55.53
2018-08-04T06:46:19.991Z,54.86
2018-08-04T06:48:48.392Z,55.19
2018-08-04T06:51:16.775Z,55.98
2018-08-04T06:53:45.195Z,54.59
2018-08-04T06:56:13.579Z,54.55
2018-08-04T06:58:41.977Z,54.67
2018-08-04T07:01:10.365Z,54.82
2018-08-04T07:03:38.757Z,54.65
2018-08-04T07:06:07.129Z,54.70
2018-08-04T07:08:35.722Z,55.35
2018-08-04T07:11:04.122Z,55.15
2018-08-04T07:13:32.522Z,54.07
2018-08-04T07:16:00.894Z,54.49
2018-08-04T07:18:29.293Z,53.64
2018-08-04T07:20:57.665Z,53.69
2018-08-04T07:23:26.069Z,53.28
2018-08-04T07:25:54.446Z,53.28
2018-08-04T07:28:22.845Z,52.03
2018-08-04T07:30:51.219Z,51.37
2018-08-04T07:33:19.623Z,51.76
2018-08-04T07:35:47.995Z,50.52
2018-08-04T07:38:16.504Z,50.25
2018-08-04T07:40:44.875Z,51.32
2018-08-04T07:43:13.275Z,49.13
2018-08-04T07:45:41.664Z,49.67
2018-08-04T07:48:10.071Z,49.13
2018-08-04T07:50:38.458Z,49.02
2018-08-04T07:53:06.880Z,48.25
2018-08-04T07:55:35.254Z,48.08
2018-08-04T07:58:03.647Z,47.93
2018-08-04T08:00:32.043Z,46.99
2018-08-04T08:03:00.438Z,47.85
2018-08-04T08:05:28.815Z,47.41
2018-08-04T08:07:57.222Z,46.59
2018-08-04T08:10:25.630Z,47.53
2018-08-04T08:12:54.051Z,46.51
2018-08-04T08:15:22.437Z,47.13
2018-08-04T08:17:50.830Z,47.25
2018-08-04T08:20:19.216Z,47.65
2018-08-04T08:22:47.622Z,47.61
2018-08-04T08:25:15.999Z,47.70
2018-08-04T08:27:44.394Z,46.30
2018-08-04T08:30:14.260Z,45.51
2018-08-04T08:32:42.697Z,45.17
2018-08-04T08:35:11.598Z,45.49
2018-08-04T08:37:40.232Z,46.00
2018-08-04T08:40:09.237Z,46.62
2018-08-04T08:42:37.774Z,46.54
2018-08-04T08:45:07.984Z,46.75
2018-08-04T08:47:36.362Z,45.63
2018-08-04T08:50:07.090Z,45.84
2018-08-04T08:52:35.491Z,46.65
2018-08-04T08:55:05.087Z,46.60
2018-08-04T08:57:33.468Z,45.59
2018-08-04T09:00:01.996Z,46.52
2018-08-04T09:02:30.374Z,45.72
2018-08-04T09:04:58.777Z,45.82
2018-08-04T09:07:27.141Z,45.36
2018-08-04T09:09:55.561Z,45.26
2018-08-04T09:12:23.938Z,44.44
2018-08-04T09:14:52.347Z,43.75
2018-08-04T09:17:20.713Z,44.58
2018-08-04T09:19:49.102Z,42.40
2018-08-04T09:22:17.484Z,42.09
2018-08-04T09:24:45.910Z,41.68
2018-08-04T09:27:14.294Z,41.75
2018-08-04T09:29:42.721Z,41.02
2018-08-04T09:32:11.094Z,40.27
2018-08-04T09:34:39.511Z,39.59
2018-08-04T09:37:07.890Z,40.59
2018-08-04T09:39:36.310Z,40.63
2018-08-04T09:42:04.685Z,40.57
2018-08-04T09:44:33.432Z,40.55
2018-08-04T09:47:01.811Z,39.62
2018-08-04T09:49:30.231Z,39.56
2018-08-04T09:51:58.619Z,39.89
2018-08-04T09:54:27.018Z,40.07
2018-08-04T09:56:55.419Z,39.57
2018-08-04T09:59:23.821Z,40.45
2018-08-04T10:01:56.363Z,38.74
2018-08-04T10:04:24.772Z,39.31
2018-08-04T10:06:53.144Z,39.20
2018-08-04T10:09:21.550Z,39.28
2018-08-04T10:11:49.942Z,38.84
2018-08-04T10:14:18.351Z,38.85
2018-08-04T10:16:46.732Z,38.46
2018-08-04T10:19:15.150Z,38.70
2018-08-04T10:21:43.622Z,37.97
2018-08-04T10:24:12.030Z,37.34
2018-08-04T10:26:40.416Z,38.40
2018-08-04T10:29:08.900Z,38.94
2018-08-04T10:31:37.267Z,38.69
2018-08-04T10:34:05.970Z,39.56
2018-08-04T10:36:34.375Z,39.40
2018-08-04T10:39:02.847Z,39.52
2018-08-04T10:41:31.257Z,38.53
2018-08-04T10:43:59.665Z,37.99
2018-08-04T10:46:28.302Z,37.23
2018-08-04T10:48:56.707Z,36.93
2018-08-04T10:51:25.114Z,36.64
2018-08-04T10:53:53.535Z,35.24
2018-08-04T10:56:21.963Z,35.99
2018-08-04T10:58:50.399Z,34.67
2018-08-04T11:01:18.816Z,35.18
2018-08-04T11:03:47.203Z,34.70
2018-08-04T11:06:15.618Z,34.36
2018-08-04T11:08:43.998Z,32.99
2018-08-04T11:11:12.600Z,33.75
2018-08-04T11:13:41.080Z,33.56
2018-08-04T11:16:09.489Z,35.23
2018-08-04T11:18:37.880Z,35.25
2018-08-04T11:21:06.334Z,34.38
2018-08-04T11:23:34.718Z,34.15
2018-08-04T11:26:03.154Z,34.72
2018-08-04T11:28:31.555Z,35.69
2018-08-04T11:31:00.005Z,35.58
2018-08-04T11:33:28.388Z,35.69
2018-08-04T11:35:56.802Z,37.12
2018-08-04T11:38:25.216Z,37.58
2018-08-04T11:40:53.621Z,37.35
2018-08-04T11:43:22.049Z,37.39
2018-08-04T11:45:50.458Z,37.12
2018-08-04T11:48:18.867Z,37.36
2018-08-04T11:50:47.271Z,35.89
2018-08-04T11:53:15.658Z,36.17
2018-08-04T11:55:44.083Z,35.71
2018-08-04T11:58:12.585Z,35.44
2018-08-04T12:00:41.030Z,36.34
2018-08-04T12:03:09.426Z,36.04
2018-08-04T12:05:38.054Z,35.42
2018-08-04T12:08:06.803Z,35.48
2018-08-04T12:10:35.234Z,35.03
2018-08-04T12:13:03.629Z,34.46
2018-08-04T12:15:32.040Z,35.22
2018-08-04T12:18:00.480Z,34.45
2018-08-04T12:20:28.939Z,34.65
2018-08-04T12:22:57.399Z,35.11
2018-08-04T12:25:25.835Z,34.54
2018-08-04T12:27:54.236Z,35.10
2018-08-04T12:30:22.642Z,35.12
2018-08-04T12:32:51.027Z,35.08
2018-08-04T12:35:19.487Z,34.80
2018-08-04T12:37:48.061Z,36.11
2018-08-04T12:40:16.460Z,36.26
2018-08-04T12:42:44.985Z,36.28
2018-08-04T12:45:13.381Z,35.22
2018-08-04T12:47:41.805Z,35.62
2018-08-04T12:50:10.194Z,35.89
2018-08-04T12:52:38.641Z,36.88
2018-08-04T12:55:07.027Z,36.42
2018-08-04T12:57:35.434Z,36.95
2018-08-04T13:00:04.501Z,36.95
2018-08-04T13:02:32.969Z,36.63
2018-08-04T13:05:01.332Z,36.59
2018-08-04T13:07:29.734Z,35.93
2018-08-04T13:09:58.149Z,37.37
2018-08-04T13:12:26.549Z,36.47
2018-08-04T13:14:54.926Z,35.97
2018-08-04T13:17:23.339Z,36.00
2018-08-04T13:19:51.897Z,36.29
2018-08-04T13:22:20.338Z,36.09
2018-08-04T13:24:48.737Z,35.77
2018-08-04T13:27:17.203Z,35.69
2018-08-04T13:29:45.630Z,36.27
2018-08-04T13:32:14.343Z,36.45
2018-08-04T13:34:42.779Z,35.93
2018-08-04T13:37:11.228Z,36.13
2018-08-04T13:39:39.595Z,36.44
2018-08-04T13:42:08.185Z,35.94
2018-08-04T13:44:36.732Z,36.20
2018-08-04T13:47:05.155Z,35.90
2018-08-04T13:49:33.543Z,35.51
2018-08-04T13:52:01.971Z,35.00
2018-08-04T13:54:30.356Z,35.09
2018-08-04T13:56:58.847Z,36.35
2018-08-04T13:59:27.226Z,35.26
2018-08-04T14:01:55.628Z,36.04
2018-08-04T14:04:24.011Z,36.87
2018-08-04T14:06:52.423Z,36.91
2018-08-04T14:09:20.804Z,36.33
2018-08-04T14:11:49.230Z,35.96
2018-08-04T14:14:17.802Z,36.34
2018-08-04T14:16:46.206Z,36.16
2018-08-04T14:19:14.591Z,36.31
2018-08-04T14:21:43.116Z,37.17
2018-08-04T14:24:11.573Z,37.37
2018-08-04T14:26:40.069Z,37.85
2018-08-04T14:29:08.455Z,36.94
2018-08-04T14:31:36.870Z,37.54
2018-08-04T14:34:05.266Z,38.88
2018-08-04T14:36:33.680Z,38.46
2018-08-04T14:39:02.087Z,38.93
2018-08-04T14:41:30.505Z,37.76
2018-08-04T14:43:58.945Z,37.37
2018-08-04T14:46:27.366Z,36.64
2018-08-04T14:48:55.888Z,36.37
2018-08-04T14:51:24.254Z,36.09
2018-08-04T14:53:52.650Z,35.47
2018-08-04T14:56:21.050Z,35.46
2018-08-04T14:58:49.458Z,35.76
2018-08-04T15:01:17.839Z,37.37
2018-08-04T15:03:46.239Z,37.76
2018-08-04T15:06:14.615Z,38.38
2018-08-04T15:08:43.016Z,38.30
2018-08-04T15:11:11.414Z,37.98
2018-08-04T15:13:39.823Z,39.16
2018-08-04T15:16:08.197Z,39.24
2018-08-04T15:18:36.611Z,38.55
2018-08-04T15:21:05.008Z,38.68
2018-08-04T15:23:33.411Z,39.06
2018-08-04T15:26:01.786Z,39.88
2018-08-04T15:28:30.221Z,39.33
2018-08-04T15:30:58.610Z,40.28
2018-08-04T15:33:27.024Z,39.44
2018-08-04T15:35:55.514Z,40.32
2018-08-04T15:38:24.127Z,38.66
2018-08-04T15:40:52.507Z,38.70
2018-08-04T15:43:20.909Z,38.65
2018-08-04T15:45:49.661Z,38.15
2018-08-04T15:48:18.181Z,38.20
2018-08-04T15:50:46.710Z,37.35
2018-08-04T15:53:15.114Z,37.27
2018-08-04T15:55:43.583Z,37.85
2018-08-04T15:58:11.986Z,36.94
2018-08-04T16:00:40.375Z,36.86
2018-08-04T16:03:08.779Z,36.73
2018-08-04T16:05:37.146Z,36.55
2018-08-04T16:08:05.550Z,36.82
2018-08-04T16:10:33.945Z,36.82
2018-08-04T16:13:02.414Z,36.66
2018-08-04T16:15:30.821Z,35.98
2018-08-04T16:17:59.229Z,35.75
2018-08-04T16:20:27.610Z,36.41
2018-08-04T16:22:56.066Z,36.02
2018-08-04T16:25:24.454Z,35.85
2018-08-04T16:27:52.869Z,35.09
2018-08-04T16:30:21.245Z,34.99
2018-08-04T16:32:49.662Z,34.88
2018-08-04T16:35:18.041Z,36.19
2018-08-04T16:37:46.463Z,35.12
2018-08-04T16:40:14.833Z,36.44
2018-08-04T16:42:43.228Z,36.92
2018-08-04T16:45:11.631Z,36.17
2018-08-04T16:47:40.027Z,37.86
2018-08-04T16:50:08.431Z,36.98
2018-08-04T16:52:36.884Z,37.90
2018-08-04T16:55:05.287Z,38.79
2018-08-04T16:57:33.663Z,38.06
2018-08-04T17:00:02.063Z,38.76
2018-08-04T17:02:30.439Z,39.62
2018-08-04T17:04:58.826Z,39.25
2018-08-04T17:07:27.196Z,39.70
2018-08-04T17:09:55.623Z,39.79
2018-08-04T17:12:24.056Z,39.39
2018-08-04T17:14:52.413Z,39.33
2018-08-04T17:17:20.786Z,39.33
2018-08-04T17:19:49.185Z,38.61
2018-08-04T17:22:17.610Z,38.07
2018-08-04T17:24:45.961Z,38.84
2018-08-04T17:27:14.330Z,38.96
2018-08-04T17:29:42.722Z,38.26
2018-08-04T17:32:11.099Z,38.86
2018-08-04T17:34:39.499Z,38.13
2018-08-04T17:37:07.879Z,38.69
2018-08-04T17:39:36.278Z,39.82
2018-08-04T17:42:04.650Z,40.13
2018-08-04T17:44:33.123Z,39.14
2018-08-04T17:47:01.456Z,39.57
2018-08-04T17:49:29.859Z,39.25
2018-08-04T17:51:58.228Z,40.05
2018-08-04T17:54:26.637Z,40.34
2018-08-04T17:56:55.022Z,40.97
2018-08-04T17:59:23.464Z,41.19
2018-08-04T18:01:51.870Z,41.47
2018-08-04T18:04:20.271Z,41.00
2018-08-04T18:06:48.651Z,42.14
2018-08-04T18:09:17.046Z,42.67
2018-08-04T18:11:45.433Z,42.48
2018-08-04T18:14:13.817Z,43.37
2018-08-04T18:16:42.183Z,43.32
2018-08-04T18:19:10.574Z,43.52
2018-08-04T18:21:38.945Z,43.03
2018-08-04T18:24:07.347Z,43.95
2018-08-04T18:26:35.714Z,43.92
2018-08-04T18:29:04.237Z,44.21
2018-08-04T18:31:32.625Z,45.73
2018-08-04T18:34:01.019Z,45.77
2018-08-04T18:36:29.400Z,46.42
2018-08-04T18:38:57.799Z,45.50
2018-08-04T18:41:26.186Z,46.70
2018-08-04T18:43:54.563Z,47.69
2018-08-04T18:46:22.979Z,46.69
2018-08-04T18:48:51.358Z,46.65
2018-08-04T18:51:19.763Z,47.56
2018-08-04T18:53:48.133Z,47.93
2018-08-04T18:56:16.524Z,48.14
2018-08-04T18:58:44.897Z,48.43
2018-08-04T19:01:13.305Z,48.50
2018-08-04T19:03:41.690Z,49.15
2018-08-04T19:06:10.083Z,49.14
2018-08-04T19:08:38.454Z,49.55
2018-08-04T19:11:06.867Z,49.61
2018-08-04T19:13:35.239Z,49.10
2018-08-04T19:16:03.674Z,48.75
2018-08-04T19:18:32.025Z,48.75
2018-08-04T19:21:00.430Z,49.79
2018-08-04T19:23:28.803Z,49.71
2018-08-04T19:25:57.193Z,49.22
2018-08-04T19:28:25.636Z,49.63
2018-08-04T19:30:53.990Z,49.28
2018-08-04T19:33:22.361Z,48.38
2018-08-04T19:35:50.754Z,47.95
2018-08-04T19:38:19.130Z,48.01
2018-08-04T19:40:47.522Z,48.27
2018-08-04T19:43:15.890Z,48.11
2018-08-04T19:45:44.278Z,49.31
2018-08-04T19:48:12.684Z,48.70
2018-08-04T19:50:41.112Z,49.13
2018-08-04T19:53:09.565Z,48.70
2018-08-04T19:55:37.994Z,48.51
2018-08-04T19:58:06.387Z,48.94
2018-08-04T20:00:34.837Z,50.00
2018-08-04T20:03:03.214Z,49.24
2018-08-04T20:05:31.679Z,48.94
2018-08-04T20:08:00.167Z,50.35
2018-08-04T20:10:28.584Z,49.75
2018-08-04T20:12:56.969Z,49.30
2018-08-04T20:15:25.353Z,50.32
2018-08-04T20:17:53.731Z,49.58
2018-08-04T20:20:22.337Z,50.32
2018-08-04T20:22:51.094Z,50.01
2018-08-04T20:25:19.501Z,50.72
2018-08-04T20:27:47.889Z,49.89
2018-08-04T20:30:16.314Z,49.75
2018-08-04T20:32:44.702Z,51.09
2018-08-04T20:35:13.134Z,51.40
2018-08-04T20:37:41.534Z,51.46
2018-08-04T20:40:09.921Z,50.84
2018-08-04T20:42:38.327Z,51.48
2018-08-04T20:45:06.690Z,51.14
2018-08-04T20:47:35.090Z,51.10
2018-08-04T20:50:03.483Z,51.63
2018-08-04T20:52:31.910Z,51.67
2018-08-04T20:55:00.291Z,50.90
2018-08-04T20:57:28.689Z,51.20
2018-08-04T20:59:57.099Z,50.84
2018-08-04T21:02:25.501Z,51.23
2018-08-04T21:04:53.880Z,50.59
2018-08-04T21:07:22.278Z,50.64
2018-08-04T21:09:50.683Z,51.52
2018-08-04T21:12:19.069Z,50.68
2018-08-04T21:14:47.446Z,51.57
2018-08-04T21:17:15.858Z,50.60
2018-08-04T21:19:44.230Z,50.92
2018-08-04T21:22:12.627Z,51.34
2018-08-04T21:24:41.011Z,51.04
2018-08-04T21:27:09.415Z,52.02
2018-08-04T21:29:37.791Z,51.26
2018-08-04T21:32:06.206Z,51.61
2018-08-04T21:34:35.303Z,52.24
2018-08-04T21:37:03.705Z,52.45
2018-08-04T21:39:32.082Z,51.71
2018-08-04T21:42:00.494Z,51.78
2018-08-04T21:44:28.888Z,51.95
2018-08-04T21:46:57.302Z,52.05
2018-08-04T21:49:25.749Z,52.92
2018-08-04T21:51:54.122Z,52.94
2018-08-04T21:54:22.514Z,52.54
2018-08-04T21:56:50.914Z,52.42
2018-08-04T21:59:19.423Z,53.27
2018-08-04T22:01:53.237Z,54.25
2018-08-04T22:04:21.543Z,53.56
2018-08-04T22:08:00.809Z,53.19
2018-08-04T22:10:29.217Z,53.98
2018-08-04T22:12:58.145Z,53.31
2018-08-04T22:15:26.638Z,54.42
2018-08-04T22:17:55.070Z,54.00
2018-08-04T22:20:24.123Z,54.69
2018-08-04T22:22:52.751Z,54.20
2018-08-04T22:25:22.410Z,54.45
2018-08-04T22:27:50.863Z,54.58
2018-08-04T22:30:20.507Z,54.83
2018-08-04T22:32:49.422Z,55.15
2018-08-04T22:35:17.912Z,55.88
2018-08-04T22:37:46.319Z,56.27
2018-08-04T22:40:15.549Z,55.84
2018-08-04T22:42:44.267Z,56.11
2018-08-04T22:46:07.623Z,57.15
2018-08-04T22:48:36.224Z,57.07
2018-08-04T22:51:04.623Z,57.52
2018-08-04T22:53:33.182Z,58.83
2018-08-04T22:56:01.566Z,59.02
2018-08-04T22:58:30.042Z,58.70
2018-08-04T23:00:58.594Z,59.06
2018-08-04T23:03:26.996Z,60.00
2018-08-04T23:05:55.384Z,59.88
2018-08-04T23:08:23.961Z,60.14
2018-08-04T23:10:52.361Z,60.50
2018-08-04T23:13:20.765Z,60.59
2018-08-04T23:15:49.143Z,60.98
2018-08-04T23:18:17.536Z,60.97
2018-08-04T23:20:45.906Z,61.23
2018-08-04T23:23:14.751Z,61.27
2018-08-04T23:25:43.218Z,61.74
2018-08-04T23:28:11.606Z,62.41
2018-08-04T23:30:39.986Z,62.71
2018-08-04T23:33:08.400Z,62.45
2018-08-04T23:35:36.783Z,63.02
2018-08-04T23:38:05.169Z,63.02
2018-08-04T23:40:33.537Z,62.43
2018-08-04T23:43:01.949Z,63.34
2018-08-04T23:45:30.326Z,63.18
2018-08-04T23:47:58.710Z,63.23
2018-08-04T23:50:27.088Z,63.79
2018-08-04T23:52:55.494Z,63.95
2018-08-04T23:55:23.874Z,64.21
2018-08-04T23:57:52.274Z,63.55
